Howe, Indiana
Current Conditions -  °F | °C
As of 12:34 PM on Wednesday 26 Nov 2014 (Local Time) from KIRS Reporting Station
Overcast Overcast  
Wind Chill: 21°   Ceiling: 1900
Heat Index: 27°   Visibility: 10mi
Dew Point: 21°   Wind: 5mph
Humidity: 80%   Direction: 130°SE
Pressure: 30.1"   Gusts: NA
Location:  41.72°N, 85.42°W
Report Text: KIRS 261734Z AUTO 13004KT 10SM OVC019 M03/M06 A3010 RMK AO2
Loading
Personal Weather Stations






























Interactive Weather Map New forecast layout! Learn more

10-Day Weather Forecast

Advertisements
Track Severe Weather on mobile